Time;durP1;ratioP1;P1;durP2;ratioP2;P2;SDS_P1;SDS_P2;PMS_P1;PMS_P2;Temp;Humidity;BMP_temperature;BMP_pressure;BME280_temperature;BME280_humidity;BME280_pressure;Samples;Min_cycle;Max_cycle;Signal;HPM_P1;HPM_P2
2023/02/17 15:36:19;;;;;;;123.18;59.72;;;;;;;8.24;100.00;101981.00;5016639;27;20410;-70
2023/02/17 15:38:44;;;;;;;130.68;60.85;;;;;;;8.18;100.00;101978.78;5052079;28;20036;-70
2023/02/17 15:41:20;;;;;;;123.32;59.92;;;;;;;8.12;100.00;101979.13;5058465;28;20028;-71
2023/02/17 15:43:46;;;;;;;;;;;;;;;8.06;100.00;101982.09;5057216;28;20036;-71
2023/02/17 15:46:17;;;;;;;120.40;57.58;;;;;;;8.05;100.00;101983.03;5062804;28;19912;-70
2023/02/17 15:48:47;;;;;;;117.63;55.30;;;;;;;8.04;100.00;101975.31;5058725;28;20450;-70
2023/02/17 15:51:20;;;;;;;106.47;51.85;;;;;;;8.02;100.00;101977.22;5055363;28;20029;-70
2023/02/17 15:53:46;;;;;;;111.90;53.97;;;;;;;8.01;100.00;101976.38;5048164;28;20028;-70
2023/02/17 15:56:21;;;;;;;105.95;52.75;;;;;;;7.98;100.00;101977.38;5048226;28;20131;-70
2023/02/17 15:58:48;;;;;;;108.27;53.00;;;;;;;7.94;100.00;101969.88;5043294;28;20110;-70
2023/02/17 16:01:31;;;;;;;98.53;48.85;;;;;;;7.90;100.00;101976.16;5044413;28;20025;-71
2023/02/17 16:03:58;;;;;;;103.60;52.92;;;;;;;7.92;100.00;101976.91;5040036;28;20120;-70
2023/02/17 16:06:24;;;;;;;113.38;52.45;;;;;;;7.92;100.00;101972.56;5046525;28;20032;-71
2023/02/17 16:08:50;;;;;;;109.10;52.58;;;;;;;7.92;100.00;101974.31;5058499;28;20474;-70
2023/02/17 16:11:18;;;;;;;118.97;53.55;;;;;;;7.90;100.00;101970.97;5043374;28;20500;-70
2023/02/17 16:13:45;;;;;;;110.45;50.15;;;;;;;7.90;100.00;101965.78;5044843;28;20037;-71
2023/02/17 16:16:18;;;;;;;115.07;55.45;;;;;;;7.89;100.00;101970.16;5059123;28;20059;-71
2023/02/17 16:18:45;;;;;;;108.57;54.20;;;;;;;7.88;100.00;101968.47;5046514;28;20029;-71
2023/02/17 16:21:12;;;;;;;114.25;56.08;;;;;;;7.87;100.00;101968.56;5044075;28;20048;-71
2023/02/17 16:23:38;;;;;;;104.85;52.13;;;;;;;7.86;100.00;101972.09;5045287;28;21166;-71
2023/02/17 16:26:11;;;;;;;115.70;55.67;;;;;;;7.85;100.00;101975.59;5040943;28;20086;-71
2023/02/17 16:28:37;;;;;;;99.88;51.13;;;;;;;7.82;100.00;101975.78;5047574;28;20384;-71
2023/02/17 16:31:03;;;;;;;110.70;55.13;;;;;;;7.80;100.00;101967.25;5054112;28;20047;-71
2023/02/17 16:33:28;;;;;;;110.30;55.17;;;;;;;7.77;100.00;101970.84;5044574;28;20040;-71
2023/02/17 16:35:53;;;;;;;120.60;57.97;;;;;;;7.77;100.00;101988.19;5040676;28;20033;-71
2023/02/17 16:38:22;;;;;;;110.25;53.30;;;;;;;7.74;100.00;101988.38;5044189;28;20029;-71
2023/02/17 16:40:49;;;;;;;114.03;55.60;;;;;;;7.74;100.00;101985.78;5041606;28;20036;-70
2023/02/17 16:43:18;;;;;;;115.68;59.20;;;;;;;7.72;100.00;101993.63;5043734;28;21423;-71
2023/02/17 16:46:04;;;;;;;111.35;55.42;;;;;;;7.65;100.00;101990.56;5038159;28;20030;-72
2023/02/17 16:48:32;;;;;;;113.55;55.10;;;;;;;7.64;100.00;101999.25;5021702;28;20048;-71
2023/02/17 16:50:58;;;;;;;119.28;55.08;;;;;;;7.64;100.00;101999.25;5024476;28;20039;-71
2023/02/17 16:53:24;;;;;;;123.32;58.92;;;;;;;7.63;100.00;101995.00;5038279;28;20028;-71
2023/02/17 16:55:52;;;;;;;115.53;54.42;;;;;;;7.62;100.00;101989.91;5036270;28;20037;-70
2023/02/17 16:58:23;;;;;;;107.82;51.42;;;;;;;7.61;100.00;101998.59;5035028;28;20037;-71
2023/02/17 17:00:51;;;;;;;114.50;56.00;;;;;;;7.61;100.00;101994.25;5042728;28;20565;-72
2023/02/17 17:03:23;;;;;;;100.93;49.25;;;;;;;7.61;100.00;101994.25;5041993;28;20590;-71
2023/02/17 17:05:50;;;;;;;117.57;56.78;;;;;;;7.61;100.00;101994.25;5041050;28;20108;-72
2023/02/17 17:08:16;;;;;;;123.45;56.88;;;;;;;7.58;100.00;101999.63;5043772;28;20488;-72
2023/02/17 17:10:43;;;;;;;123.45;56.58;;;;;;;7.58;100.00;102004.81;5042691;28;20041;-72
2023/02/17 17:13:09;;;;;;;118.85;59.13;;;;;;;7.57;100.00;102005.72;5040945;28;20032;-70
2023/02/17 17:15:42;;;;;;;113.97;54.10;;;;;;;7.57;100.00;102013.50;5043509;28;20028;-72
2023/02/17 17:18:09;;;;;;;112.47;55.85;;;;;;;7.55;100.00;102015.38;5044389;28;20029;-71
2023/02/17 17:20:37;;;;;;;119.78;57.45;;;;;;;7.55;100.00;102005.00;5043104;28;20587;-72
2023/02/17 17:23:09;;;;;;;116.72;57.63;;;;;;;7.56;100.00;102011.84;5040130;28;20454;-72
2023/02/17 17:25:39;;;;;;;111.10;54.90;;;;;;;7.56;100.00;102006.66;5039782;28;20483;-71
2023/02/17 17:28:05;;;;;;;124.93;59.03;;;;;;;7.57;100.00;102016.09;5040089;28;20037;-72
2023/02/17 17:30:34;;;;;;;120.03;57.00;;;;;;;7.56;100.00;102014.44;5039972;28;21409;-71
2023/02/17 17:33:00;;;;;;;127.85;60.70;;;;;;;7.55;100.00;102010.19;5044049;28;20159;-72
2023/02/17 17:35:26;;;;;;;124.28;60.97;;;;;;;7.55;100.00;102020.56;5034099;28;20068;-71
2023/02/17 17:37:53;;;;;;;120.78;60.95;;;;;;;7.54;100.00;102016.31;5033487;28;20361;-71
2023/02/17 17:40:25;;;;;;;112.82;58.35;;;;;;;7.53;100.00;102022.41;5040120;28;20119;-72
2023/02/17 17:42:51;;;;;;;122.55;57.70;;;;;;;7.53;100.00;102024.16;5040951;28;20616;-72
2023/02/17 17:45:17;;;;;;;108.82;56.58;;;;;;;7.52;100.00;102023.34;5037849;28;20033;-72
2023/02/17 17:47:43;;;;;;;101.68;51.25;;;;;;;7.53;100.00;102024.16;5041560;28;20127;-72
2023/02/17 17:50:15;;;;;;;113.35;56.25;;;;;;;7.52;100.00;102028.53;5042774;28;20448;-71
2023/02/17 17:52:41;;;;;;;123.88;61.05;;;;;;;7.50;100.00;102025.19;5036177;28;20033;-71
2023/02/17 17:55:06;;;;;;;136.73;63.10;;;;;;;7.51;100.00;102026.84;5043423;28;20040;-72
2023/02/17 17:57:32;;;;;;;115.80;57.28;;;;;;;7.52;100.00;102023.34;5039476;28;20800;-71
2023/02/17 17:59:57;;;;;;;121.47;59.35;;;;;;;7.53;100.00;102026.75;5029095;28;21654;-72
2023/02/17 18:02:23;;;;;;;115.28;57.88;;;;;;;7.50;100.00;102027.78;5034904;28;20033;-71
2023/02/17 18:04:48;;;;;;;122.03;60.40;;;;;;;7.49;100.00;102023.50;5032349;28;20037;-72
2023/02/17 18:07:14;;;;;;;110.40;54.92;;;;;;;7.47;100.00;102027.94;5039697;28;20047;-72
2023/02/17 18:09:39;;;;;;;112.55;55.35;;;;;;;7.46;100.00;102022.84;5047240;28;20379;-71
2023/02/17 18:12:14;;;;;;;107.75;54.25;;;;;;;7.44;100.00;102022.09;5038615;28;20029;-72
2023/02/17 18:14:42;;;;;;;117.88;58.75;;;;;;;7.44;100.00;102025.53;5033840;28;20044;-73
2023/02/17 18:17:09;;;;;;;119.15;58.80;;;;;;;7.42;100.00;102019.59;5038634;28;20459;-71
2023/02/17 18:19:34;;;;;;;121.43;60.00;;;;;;;7.44;100.00;102014.31;5041178;28;20054;-71
2023/02/17 18:22:00;;;;;;;111.70;55.80;;;;;;;7.43;100.00;102016.06;5037552;28;20052;-71
2023/02/17 18:24:25;;;;;;;117.13;58.50;;;;;;;7.43;100.00;102025.59;5042012;28;20024;-72
2023/02/17 18:26:51;;;;;;;112.60;58.88;;;;;;;7.42;100.00;102031.72;5044595;28;20600;-71
2023/02/17 18:29:17;;;;;;;110.75;55.60;;;;;;;7.42;100.00;102032.56;5043765;28;20048;-72
2023/02/17 18:31:43;;;;;;;112.43;57.00;;;;;;;7.42;100.00;102029.13;5038341;28;20393;-71
2023/02/17 18:34:09;;;;;;;116.65;57.38;;;;;;;7.41;100.00;102036.06;5037185;28;20102;-72
2023/02/17 18:36:35;;;;;;;120.57;57.45;;;;;;;7.42;100.00;102035.16;5041469;28;20462;-69
2023/02/17 18:39:00;;;;;;;101.15;52.05;;;;;;;7.42;100.00;102034.31;5040512;28;20059;-72
2023/02/17 18:41:28;;;;;;;114.50;57.15;;;;;;;7.41;100.00;102037.81;5045210;28;20029;-72
2023/02/17 18:43:55;;;;;;;127.05;61.67;;;;;;;7.40;100.00;102049.94;5040682;28;20500;-72
2023/02/17 18:46:21;;;;;;;117.75;60.40;;;;;;;7.39;100.00;102039.66;5039472;28;20025;-71
2023/02/17 18:48:47;;;;;;;128.13;62.17;;;;;;;7.38;100.00;102038.00;5041160;28;20025;-71
2023/02/17 18:51:14;;;;;;;117.95;60.55;;;;;;;7.38;100.00;102049.19;5040442;28;20055;-72
2023/02/17 18:53:40;;;;;;;124.57;61.08;;;;;;;7.37;100.00;102046.69;5043208;28;20029;-71
2023/02/17 18:56:19;;;;;;;125.18;63.58;;;;;;;7.36;100.00;102051.03;5042275;28;20029;-72
2023/02/17 18:58:46;;;;;;;134.55;66.00;;;;;;;7.38;100.00;102059.56;5042048;28;20035;-72
2023/02/17 19:01:23;;;;;;;134.82;65.75;;;;;;;7.36;100.00;102055.41;5041048;28;20060;-71
2023/02/17 19:03:50;;;;;;;127.25;61.05;;;;;;;7.36;100.00;102052.81;5042050;28;20042;-72
2023/02/17 19:06:18;;;;;;;133.98;63.85;;;;;;;7.36;100.00;102043.25;5040107;28;20143;-72
2023/02/17 19:08:46;;;;;;;127.30;62.83;;;;;;;7.35;100.00;102043.34;5041269;28;20070;-72
2023/02/17 19:11:12;;;;;;;131.25;65.15;;;;;;;7.32;100.00;102045.19;5037286;28;20039;-72
2023/02/17 19:13:38;;;;;;;132.15;65.85;;;;;;;7.33;100.00;102043.44;5039504;28;20102;-72
2023/02/17 19:16:11;;;;;;;132.73;70.57;;;;;;;7.33;100.00;102046.03;5038767;28;20076;-72
2023/02/17 19:18:37;;;;;;;127.78;62.22;;;;;;;7.32;100.00;102052.13;5040431;28;20041;-71
2023/02/17 19:21:04;;;;;;;138.35;68.13;;;;;;;7.31;100.00;102050.47;5039851;28;20464;-71
2023/02/17 19:23:29;;;;;;;124.82;61.78;;;;;;;7.32;100.00;102049.53;5043432;28;20068;-72
2023/02/17 19:25:55;;;;;;;137.07;66.60;;;;;;;7.32;100.00;102049.53;5039210;28;20792;-70
2023/02/17 19:28:21;;;;;;;139.00;65.35;;;;;;;7.31;100.00;102038.34;5032356;28;20033;-72
2023/02/17 19:30:46;;;;;;;119.50;61.92;;;;;;;7.32;100.00;102044.34;5028584;28;20122;-72
2023/02/17 19:33:11;;;;;;;123.40;61.13;;;;;;;7.32;100.00;102046.94;5033153;28;20128;-72
2023/02/17 19:35:43;;;;;;;138.02;66.45;;;;;;;7.31;100.00;102053.06;5029547;28;20132;-72
2023/02/17 19:38:09;;;;;;;124.85;61.13;;;;;;;7.31;100.00;102047.88;5031102;28;20491;-72
2023/02/17 19:40:35;;;;;;;128.95;61.17;;;;;;;7.31;100.00;102045.28;5039142;28;20067;-72
2023/02/17 19:43:00;;;;;;;121.80;62.90;;;;;;;7.31;100.00;102053.06;5037740;28;21325;-72
2023/02/17 19:45:27;;;;;;;133.18;63.92;;;;;;;7.26;100.00;102040.34;5038251;28;20036;-71
2023/02/17 19:47:53;;;;;;;123.93;60.75;;;;;;;7.24;100.00;102042.19;5037384;28;20696;-72
2023/02/17 19:50:18;;;;;;;119.90;56.90;;;;;;;7.25;100.00;102051.63;5037782;28;20122;-72
2023/02/17 19:52:44;;;;;;;123.57;60.13;;;;;;;7.27;100.00;102056.72;5039839;28;20090;-72
2023/02/17 19:55:09;;;;;;;139.10;64.07;;;;;;;7.26;100.00;102066.25;5031844;28;20040;-72
2023/02/17 19:57:35;;;;;;;134.00;67.53;;;;;;;7.27;100.00;102060.16;5029297;28;20488;-72
2023/02/17 20:00:00;;;;;;;131.05;62.90;;;;;;;7.27;100.00;102061.91;5033917;28;20037;-72
2023/02/17 20:02:26;;;;;;;136.48;63.88;;;;;;;7.24;100.00;102054.31;5033000;28;20044;-71
2023/02/17 20:04:51;;;;;;;129.32;62.60;;;;;;;7.19;100.00;102056.31;5031700;28;20029;-71
2023/02/17 20:07:17;;;;;;;129.32;62.08;;;;;;;7.18;100.00;102062.41;5030562;28;20131;-72
2023/02/17 20:09:42;;;;;;;131.80;63.63;;;;;;;7.18;100.00;102058.06;5032186;28;20871;-72
2023/02/17 20:12:07;;;;;;;120.38;58.05;;;;;;;7.18;100.00;102065.00;5029250;28;20041;-72
2023/02/17 20:14:33;;;;;;;128.88;62.38;;;;;;;7.15;100.00;102068.59;5039716;28;20040;-71
2023/02/17 20:16:59;;;;;;;130.82;63.47;;;;;;;7.15;100.00;102072.94;5034637;28;20041;-72
2023/02/17 20:19:26;;;;;;;131.68;63.55;;;;;;;7.12;100.00;102067.94;5033907;28;20021;-71
2023/02/17 20:21:52;;;;;;;133.15;68.32;;;;;;;7.11;100.00;102066.25;5041206;28;20041;-71
2023/02/17 20:24:18;;;;;;;133.93;63.03;;;;;;;7.11;100.00;102067.09;5034206;28;20028;-70
2023/02/17 20:26:47;;;;;;;141.35;64.60;;;;;;;7.12;100.00;102057.56;5032079;28;20029;-71
2023/02/17 20:29:13;;;;;;;128.57;65.57;;;;;;;7.12;100.00;102053.22;5027369;28;20029;-72
2023/02/17 20:31:40;;;;;;;140.95;69.20;;;;;;;7.12;100.00;102052.38;5033146;28;20024;-71
2023/02/17 20:34:16;;;;;;;137.27;66.82;;;;;;;7.11;100.00;102050.72;5046193;28;20036;-71
2023/02/17 20:36:42;;;;;;;;;;;;;;;7.06;100.00;102053.56;5029534;28;20051;-72
2023/02/17 20:39:08;;;;;;;134.20;62.97;;;;;;;7.06;100.00;102057.94;5044352;28;20297;-71
2023/02/17 20:41:34;;;;;;;125.93;63.30;;;;;;;7.07;100.00;102063.03;5042882;28;20291;-71
2023/02/17 20:44:01;;;;;;;129.98;64.75;;;;;;;7.07;100.00;102064.78;5038327;28;20029;-71
2023/02/17 20:46:28;;;;;;;118.45;56.50;;;;;;;7.07;100.00;102065.63;5041795;28;20114;-71
2023/02/17 20:48:55;;;;;;;121.65;60.00;;;;;;;7.05;100.00;102074.41;5033114;28;20032;-71
2023/02/17 20:51:20;;;;;;;119.05;57.25;;;;;;;7.04;100.00;102072.72;5033619;28;20086;-72
2023/02/17 20:53:46;;;;;;;119.95;59.53;;;;;;;7.02;100.00;102066.78;5031285;28;20037;-71
2023/02/17 20:56:14;;;;;;;115.30;56.83;;;;;;;7.01;100.00;102059.94;5034989;28;20037;-72
2023/02/17 20:58:40;;;;;;;121.35;56.00;;;;;;;6.98;100.00;102046.22;5031024;28;20609;-71
2023/02/17 21:01:05;;;;;;;108.88;54.03;;;;;;;6.97;100.00;102044.53;5034701;28;20025;-71
2023/02/17 21:03:31;;;;;;;119.93;58.67;;;;;;;6.97;100.00;102048.88;5033114;28;20514;-71
2023/02/17 21:05:56;;;;;;;116.43;58.20;;;;;;;6.96;100.00;102042.88;5033043;28;20048;-72
2023/02/17 21:08:21;;;;;;;116.43;57.40;;;;;;;6.96;100.00;102042.88;5037720;28;20059;-71
2023/02/17 21:10:47;;;;;;;111.47;56.45;;;;;;;6.95;100.00;102046.38;5034705;28;20057;-71
2023/02/17 21:13:12;;;;;;;111.10;52.92;;;;;;;6.94;100.00;102041.28;5035156;28;20029;-71
2023/02/17 21:15:38;;;;;;;122.70;58.42;;;;;;;6.94;100.00;102046.47;5033891;28;20426;-72
2023/02/17 21:18:04;;;;;;;113.63;58.55;;;;;;;6.92;100.00;102051.72;5034507;28;20037;-71
2023/02/17 21:20:30;;;;;;;119.50;56.63;;;;;;;6.89;100.00;102041.53;5038052;28;20036;-71
2023/02/17 21:22:56;;;;;;;120.82;59.60;;;;;;;6.89;100.00;102048.47;5039962;28;20041;-71
2023/02/17 21:25:22;;;;;;;131.77;60.85;;;;;;;6.88;100.00;102057.97;5045946;28;20029;-71
2023/02/17 21:27:48;;;;;;;130.32;60.35;;;;;;;6.87;100.00;102056.31;5043471;28;20044;-71
2023/02/17 21:30:14;;;;;;;127.10;62.30;;;;;;;6.86;100.00;102054.63;5046030;28;20368;-72
2023/02/17 21:32:41;;;;;;;129.77;58.88;;;;;;;6.87;100.00;102042.53;5029358;28;20040;-71
2023/02/17 21:35:08;;;;;;;125.75;59.50;;;;;;;6.88;100.00;102047.63;5032792;28;20075;-71
2023/02/17 21:37:37;;;;;;;129.07;59.08;;;;;;;6.89;100.00;102053.63;5039605;28;20059;-71
2023/02/17 21:40:08;;;;;;;122.63;57.28;;;;;;;6.88;100.00;102062.34;5037394;28;20118;-71
2023/02/17 21:45:20;;;;;;;118.95;57.78;;;;;;;6.89;100.00;102057.06;5039596;28;20395;-71
2023/02/17 21:47:46;;;;;;;120.45;60.58;;;;;;;6.90;100.00;102063.09;5042257;28;20016;-72
2023/02/17 21:50:12;;;;;;;135.30;61.75;;;;;;;6.88;100.00;102065.75;5021550;28;20765;-71
2023/02/17 21:52:39;;;;;;;129.82;63.22;;;;;;;6.87;100.00;102069.28;5040646;28;20358;-71
2023/02/17 21:55:05;;;;;;;135.63;65.15;;;;;;;6.86;100.00;102069.34;5046568;28;20075;-71
2023/02/17 21:57:31;;;;;;;136.25;63.60;;;;;;;6.85;100.00;102070.25;5039672;28;20041;-71
2023/02/17 21:59:57;;;;;;;137.45;66.15;;;;;;;6.85;100.00;102071.09;5038923;28;20039;-71
2023/02/17 22:02:23;;;;;;;130.75;61.20;;;;;;;6.84;100.00;102064.25;5040200;28;20628;-71
2023/02/17 22:04:53;;;;;;;138.23;65.47;;;;;;;6.82;100.00;102071.25;5036678;28;20029;-71
2023/02/17 22:07:19;;;;;;;131.00;63.28;;;;;;;6.80;100.00;102075.69;5042647;28;20052;-71
2023/02/17 22:09:45;;;;;;;131.15;60.30;;;;;;;6.78;100.00;102080.13;5038528;28;20025;-70
2023/02/17 22:12:10;;;;;;;134.70;63.85;;;;;;;6.79;100.00;102086.13;5035751;28;20504;-72
2023/02/17 22:14:36;;;;;;;143.55;63.38;;;;;;;6.78;100.00;102074.94;5030953;28;20037;-72
2023/02/17 22:17:01;;;;;;;139.18;65.30;;;;;;;6.77;100.00;102070.66;5031273;28;21420;-71
2023/02/17 22:19:27;;;;;;;138.65;64.75;;;;;;;6.75;100.00;102076.84;5033316;28;20109;-73
2023/02/17 22:21:53;;;;;;;139.05;62.30;;;;;;;6.75;100.00;102069.06;5040918;28;20094;-72
2023/02/17 22:24:21;;;;;;;123.68;57.08;;;;;;;6.74;100.00;102068.25;5048274;28;20063;-72
2023/02/17 22:26:47;;;;;;;130.95;63.05;;;;;;;6.73;100.00;102076.94;5035946;28;20033;-72
2023/02/17 22:29:13;;;;;;;134.85;59.92;;;;;;;6.75;100.00;102075.09;5044156;28;20036;-71
2023/02/17 22:31:39;;;;;;;137.65;62.70;;;;;;;6.74;100.00;102078.59;5044361;28;20052;-72
2023/02/17 22:34:08;;;;;;;138.00;65.00;;;;;;;6.74;100.00;102076.00;5042483;28;20051;-72
2023/02/17 22:36:35;;;;;;;135.80;62.63;;;;;;;6.73;100.00;102078.69;5040517;28;20120;-72
2023/02/17 22:39:03;;;;;;;142.15;64.32;;;;;;;6.72;100.00;102079.59;5046279;28;20025;-71
2023/02/17 22:41:29;;;;;;;146.57;65.18;;;;;;;6.71;100.00;102067.56;5044484;28;20106;-72
2023/02/17 22:43:55;;;;;;;134.18;63.13;;;;;;;6.73;100.00;102071.75;5041544;28;20029;-72
2023/02/17 22:46:22;;;;;;;131.85;63.72;;;;;;;6.74;100.00;102077.75;5036757;28;20071;-72
2023/02/17 22:48:50;;;;;;;133.43;63.03;;;;;;;6.73;100.00;102071.75;5031851;28;20052;-72
2023/02/17 22:51:19;;;;;;;134.25;60.67;;;;;;;6.72;100.00;102075.25;5040366;28;20531;-71
2023/02/17 22:53:45;;;;;;;146.50;62.60;;;;;;;6.72;100.00;102090.78;5039029;28;20395;-72
2023/02/17 22:56:11;;;;;;;133.73;61.28;;;;;;;6.72;100.00;102083.03;5044010;28;20033;-72
2023/02/17 22:58:37;;;;;;;137.80;63.15;;;;;;;6.73;100.00;102086.44;5038961;28;20029;-72
2023/02/17 23:01:10;;;;;;;139.80;65.32;;;;;;;6.72;100.00;102079.59;5040130;28;20064;-72
2023/02/17 23:03:36;;;;;;;130.95;61.35;;;;;;;6.72;100.00;102084.78;5038513;28;20087;-71
2023/02/17 23:06:17;;;;;;;141.48;62.85;;;;;;;6.70;100.00;102086.59;5039115;28;20071;-72
2023/02/17 23:08:43;;;;;;;142.20;62.25;;;;;;;6.71;100.00;102086.53;5038800;28;20488;-72
2023/02/17 23:11:10;;;;;;;136.93;62.45;;;;;;;6.69;100.00;102070.22;5042513;28;20049;-72
2023/02/17 23:13:36;;;;;;;131.82;61.10;;;;;;;6.71;100.00;102072.75;5042957;28;20028;-72
2023/02/17 23:16:02;;;;;;;154.80;66.00;;;;;;;6.72;100.00;102061.47;5046114;28;20483;-72
2023/02/17 23:18:30;;;;;;;148.85;65.90;;;;;;;6.71;100.00;102065.81;5043558;28;20040;-72
2023/02/17 23:20:57;;;;;;;146.57;64.90;;;;;;;6.72;100.00;102066.66;5034761;28;20029;-72
2023/02/17 23:23:23;;;;;;;140.40;64.00;;;;;;;6.73;100.00;102071.75;5047084;28;20043;-72
2023/02/17 23:25:51;;;;;;;135.73;63.08;;;;;;;6.72;100.00;102070.06;5043809;28;20033;-72
2023/02/17 23:28:18;;;;;;;132.93;57.95;;;;;;;6.72;100.00;102070.06;5042811;28;20035;-72
2023/02/17 23:30:45;;;;;;;132.68;58.47;;;;;;;6.72;100.00;102062.31;5040242;28;20439;-72
2023/02/17 23:33:11;;;;;;;137.35;60.42;;;;;;;6.72;100.00;102070.06;5038758;28;20033;-72
2023/02/17 23:35:43;;;;;;;119.70;54.35;;;;;;;6.71;100.00;102068.41;5036891;28;20177;-72
2023/02/17 23:38:10;;;;;;;143.90;63.58;;;;;;;6.70;100.00;102060.72;5042186;28;20082;-72
2023/02/17 23:40:36;;;;;;;139.55;64.72;;;;;;;6.69;100.00;102053.84;5043793;28;20044;-72
2023/02/17 23:43:04;;;;;;;137.80;63.83;;;;;;;6.69;100.00;102059.88;5042000;28;20028;-72
2023/02/17 23:45:37;;;;;;;142.68;64.90;;;;;;;6.70;100.00;102051.19;5044103;28;20424;-72
2023/02/17 23:48:03;;;;;;;141.10;63.42;;;;;;;6.69;100.00;102059.88;5042256;28;20124;-73
2023/02/17 23:50:29;;;;;;;147.73;66.32;;;;;;;6.71;100.00;102065.81;5039827;28;20111;-73
2023/02/17 23:52:54;;;;;;;133.50;60.63;;;;;;;6.72;100.00;102062.31;5040021;28;20424;-72
2023/02/17 23:55:20;;;;;;;144.85;65.38;;;;;;;6.72;100.00;102066.66;5048295;28;20448;-72
2023/02/17 23:57:46;;;;;;;135.25;62.67;;;;;;;6.70;100.00;102063.28;5046756;28;20037;-73
